createdAt,value
2019-01-03T00:02:07.523Z,2.50
2019-01-03T00:04:39.026Z,2.67
2019-01-03T00:07:20.096Z,1.80
2019-01-03T00:09:54.969Z,2.10
2019-01-03T00:12:40.283Z,2.17
2019-01-03T00:15:25.521Z,2.50
2019-01-03T00:18:00.490Z,2.40
2019-01-03T00:20:29.446Z,2.13
2019-01-03T00:22:58.357Z,1.83
2019-01-03T00:25:27.523Z,2.37
2019-01-03T00:28:02.457Z,2.47
2019-01-03T00:30:31.453Z,2.10
2019-01-03T00:33:00.369Z,2.27
2019-01-03T00:35:35.319Z,1.70
2019-01-03T00:38:07.134Z,2.20
2019-01-03T00:40:44.944Z,1.90
2019-01-03T00:43:16.565Z,3.13
2019-01-03T00:45:45.454Z,2.37
2019-01-03T00:48:14.365Z,2.60
2019-01-03T00:50:51.964Z,2.23
2019-01-03T00:53:32.971Z,3.13
2019-01-03T00:56:10.433Z,2.60
2019-01-03T00:58:45.165Z,2.60
2019-01-03T01:01:23.122Z,2.60
2019-01-03T01:04:04.230Z,2.30
2019-01-03T01:06:41.979Z,2.33
2019-01-03T01:09:27.206Z,2.03
2019-01-03T01:11:56.128Z,2.50
2019-01-03T01:14:33.438Z,2.23
2019-01-03T01:17:18.667Z,2.63
2019-01-03T01:19:56.509Z,2.23
2019-01-03T01:22:25.420Z,2.67
2019-01-03T01:25:09.718Z,3.30
2019-01-03T01:27:38.887Z,2.40
2019-01-03T01:30:10.978Z,2.30
2019-01-03T01:32:51.894Z,2.60
2019-01-03T01:35:29.558Z,2.77
2019-01-03T01:38:13.266Z,2.90
2019-01-03T01:40:47.846Z,2.40
2019-01-03T01:43:19.912Z,2.40
2019-01-03T01:45:48.833Z,2.13
2019-01-03T01:48:33.752Z,2.17
2019-01-03T01:51:11.475Z,2.10
2019-01-03T01:53:40.381Z,2.50
2019-01-03T01:56:25.607Z,2.40
2019-01-03T01:59:09.370Z,2.20
2019-01-03T02:01:43.992Z,1.97
2019-01-03T02:04:29.258Z,1.90
2019-01-03T02:07:09.738Z,2.43
2019-01-03T02:09:54.757Z,2.43
2019-01-03T02:12:38.793Z,2.10
2019-01-03T02:15:25.646Z,2.63
2019-01-03T02:18:11.014Z,2.60
2019-01-03T02:20:45.678Z,2.00
2019-01-03T02:23:26.398Z,1.90
2019-01-03T02:26:11.731Z,2.33
2019-01-03T02:28:56.721Z,2.70
2019-01-03T02:31:28.547Z,2.70
2019-01-03T02:34:13.828Z,2.20
2019-01-03T02:36:51.248Z,2.27
2019-01-03T02:39:26.045Z,2.27
2019-01-03T02:42:01.430Z,2.73
2019-01-03T02:44:30.310Z,1.90
2019-01-03T02:47:01.890Z,1.97
2019-01-03T02:49:47.381Z,2.00
2019-01-03T02:52:25.229Z,2.30
2019-01-03T02:55:09.166Z,2.20
2019-01-03T02:57:40.697Z,2.67
2019-01-03T03:00:09.782Z,2.90
2019-01-03T03:02:38.676Z,2.43
2019-01-03T03:05:23.604Z,2.63
2019-01-03T03:07:52.478Z,2.97
2019-01-03T03:10:30.413Z,2.70
2019-01-03T03:13:05.581Z,3.53
2019-01-03T03:15:52.322Z,3.50
2019-01-03T03:18:21.479Z,3.57
2019-01-03T03:20:56.226Z,4.37
2019-01-03T03:23:27.914Z,4.73
2019-01-03T03:26:12.969Z,4.00
2019-01-03T03:28:56.714Z,4.00
2019-01-03T03:31:41.903Z,3.93
2019-01-03T03:34:19.438Z,4.20
2019-01-03T03:36:48.359Z,5.37
2019-01-03T03:39:17.246Z,5.03
2019-01-03T03:41:55.147Z,6.47
2019-01-03T03:44:26.635Z,7.00
2019-01-03T03:47:07.638Z,6.77
2019-01-03T03:49:52.578Z,5.57
2019-01-03T03:52:21.464Z,5.80
2019-01-03T03:54:53.112Z,6.00
2019-01-03T03:57:40.083Z,7.10
2019-01-03T04:00:25.163Z,7.13
2019-01-03T04:02:56.628Z,7.93
2019-01-03T04:05:41.922Z,7.00
2019-01-03T04:08:28.674Z,7.00
2019-01-03T04:11:03.464Z,8.47
2019-01-03T04:13:47.433Z,8.20
2019-01-03T04:16:16.322Z,7.90
2019-01-03T04:18:47.893Z,9.77
2019-01-03T04:21:33.236Z,9.30
2019-01-03T04:24:10.942Z,8.50
2019-01-03T04:26:42.250Z,9.80
2019-01-03T04:29:13.881Z,8.87
2019-01-03T04:31:45.541Z,8.90
2019-01-03T04:34:17.362Z,10.00
2019-01-03T04:36:46.279Z,8.00
2019-01-03T04:39:31.689Z,9.80
2019-01-03T04:42:09.328Z,9.37
2019-01-03T04:44:47.094Z,10.53
2019-01-03T04:47:27.915Z,9.80
2019-01-03T04:49:59.750Z,9.00
2019-01-03T04:52:45.293Z,9.07
2019-01-03T04:55:30.602Z,8.80
2019-01-03T04:58:11.330Z,9.87
2019-01-03T05:00:42.895Z,9.53
2019-01-03T05:03:11.788Z,10.30
2019-01-03T05:05:55.573Z,9.70
2019-01-03T05:08:30.437Z,9.30
2019-01-03T05:10:59.362Z,10.43
2019-01-03T05:13:28.278Z,8.73
2019-01-03T05:16:12.068Z,9.07
2019-01-03T05:18:56.991Z,10.80
2019-01-03T05:21:42.359Z,11.83
2019-01-03T05:24:17.448Z,10.90
2019-01-03T05:26:46.600Z,9.70
2019-01-03T05:29:24.562Z,8.70
2019-01-03T05:32:09.650Z,11.73
2019-01-03T05:34:56.474Z,10.83
2019-01-03T05:37:34.350Z,9.87
2019-01-03T05:40:19.846Z,9.70
2019-01-03T05:43:05.170Z,10.30
2019-01-03T05:45:50.206Z,10.90
2019-01-03T05:48:31.079Z,9.70
2019-01-03T05:51:08.964Z,12.20
2019-01-03T05:53:52.809Z,10.50
2019-01-03T05:56:37.898Z,14.43
2019-01-03T05:59:09.760Z,11.43
2019-01-03T06:01:55.003Z,11.43
2019-01-03T06:04:23.922Z,12.50
2019-01-03T06:07:09.137Z,14.10
2019-01-03T06:09:38.067Z,15.80
2019-01-03T06:12:13.170Z,20.47
2019-01-03T06:14:42.062Z,19.07
2019-01-03T06:17:10.953Z,17.37
2019-01-03T06:19:55.043Z,19.37
2019-01-03T06:22:32.512Z,21.20
2019-01-03T06:25:04.392Z,21.10
2019-01-03T06:27:49.441Z,19.87
2019-01-03T06:30:23.894Z,19.17
2019-01-03T06:32:55.709Z,21.50
2019-01-03T06:35:39.449Z,22.87
2019-01-03T06:38:20.453Z,24.13
2019-01-03T06:40:49.602Z,22.13
2019-01-03T06:43:27.474Z,22.00
2019-01-03T06:45:56.358Z,22.10
2019-01-03T06:48:25.277Z,22.03
2019-01-03T06:50:59.849Z,22.03
2019-01-03T06:53:43.769Z,21.60
2019-01-03T06:56:21.522Z,23.77
2019-01-03T06:59:02.123Z,22.60
2019-01-03T07:01:39.530Z,22.90
2019-01-03T07:04:20.507Z,23.90
2019-01-03T07:06:49.391Z,22.03
2019-01-03T07:09:29.738Z,24.40
2019-01-03T07:12:04.322Z,26.60
2019-01-03T07:14:36.164Z,25.03
2019-01-03T07:17:08.162Z,26.90
2019-01-03T07:19:43.074Z,28.50
2019-01-03T07:22:28.338Z,27.03
2019-01-03T07:25:13.246Z,26.67
2019-01-03T07:27:58.049Z,28.43
2019-01-03T07:30:43.003Z,26.20
2019-01-03T07:33:23.735Z,27.60
2019-01-03T07:36:08.812Z,27.77
2019-01-03T07:38:40.414Z,28.97
2019-01-03T07:41:27.394Z,23.40
2019-01-03T07:43:56.539Z,26.57
2019-01-03T07:46:31.530Z,26.40
2019-01-03T07:49:00.422Z,28.07
2019-01-03T07:51:41.318Z,26.23
2019-01-03T07:54:12.634Z,27.40
2019-01-03T07:56:57.852Z,25.50
2019-01-03T07:59:35.441Z,24.80
2019-01-03T08:02:20.446Z,24.70
2019-01-03T08:04:58.065Z,29.85
2019-01-03T08:07:35.386Z,29.13
2019-01-03T08:10:09.883Z,25.63
2019-01-03T08:12:38.773Z,25.30
2019-01-03T08:15:10.692Z,26.17
2019-01-03T08:17:39.582Z,26.60
2019-01-03T08:20:11.526Z,24.73
2019-01-03T08:22:40.418Z,26.47
2019-01-03T08:25:12.075Z,25.47
2019-01-03T08:27:50.050Z,29.13
2019-01-03T08:30:19.049Z,28.77
2019-01-03T08:32:57.064Z,27.07
2019-01-03T08:35:43.714Z,26.73
2019-01-03T08:38:27.315Z,26.13
2019-01-03T08:40:56.478Z,23.13
2019-01-03T08:43:31.327Z,26.20
2019-01-03T08:46:15.425Z,26.53
2019-01-03T08:48:47.059Z,24.40
2019-01-03T08:51:15.952Z,21.17
2019-01-03T08:53:45.110Z,23.67
2019-01-03T08:56:30.145Z,23.07
2019-01-03T08:59:13.896Z,25.47
2019-01-03T09:01:58.712Z,22.57
2019-01-03T09:04:33.572Z,21.20
2019-01-03T09:07:18.789Z,23.77
2019-01-03T09:09:59.530Z,24.00
2019-01-03T09:12:34.400Z,23.30
2019-01-03T09:15:09.314Z,23.47
2019-01-03T09:17:38.231Z,24.07
2019-01-03T09:20:23.530Z,23.37
2019-01-03T09:22:55.194Z,22.50
2019-01-03T09:25:32.917Z,27.40
2019-01-03T09:28:18.097Z,21.80
2019-01-03T09:30:55.705Z,22.50
2019-01-03T09:33:40.990Z,23.87
2019-01-03T09:36:21.673Z,23.23
2019-01-03T09:38:56.550Z,24.13
2019-01-03T09:41:41.509Z,25.47
2019-01-03T09:44:28.476Z,23.57
2019-01-03T09:46:55.728Z,22.83
2019-01-03T09:49:22.977Z,23.07
2019-01-03T09:51:50.263Z,24.30
2019-01-03T09:54:17.509Z,25.40
2019-01-03T09:56:44.877Z,24.83
2019-01-03T09:59:12.173Z,23.70
2019-01-03T10:01:39.482Z,20.70
2019-01-03T10:04:06.765Z,20.13
2019-01-03T10:06:34.126Z,22.77
2019-01-03T10:09:01.373Z,22.53
2019-01-03T10:11:28.898Z,21.90
2019-01-03T10:13:56.180Z,21.73
2019-01-03T10:16:23.433Z,24.57
2019-01-03T10:18:50.811Z,20.70
2019-01-03T10:21:18.066Z,22.80
2019-01-03T10:23:45.316Z,22.90
2019-01-03T10:26:12.591Z,19.77
2019-01-03T10:28:39.867Z,23.37
2019-01-03T10:31:07.150Z,22.13
2019-01-03T10:33:34.428Z,18.70
2019-01-03T10:36:01.686Z,21.63
2019-01-03T10:38:29.228Z,20.83
2019-01-03T10:40:56.469Z,21.90
2019-01-03T10:43:23.804Z,24.50
2019-01-03T10:45:51.329Z,19.57
2019-01-03T10:48:18.609Z,22.77
2019-01-03T10:50:45.865Z,19.40
2019-01-03T10:53:13.396Z,19.93
2019-01-03T10:55:40.646Z,21.37
2019-01-03T10:58:07.925Z,21.60
2019-01-03T11:00:35.178Z,23.37
2019-01-03T11:03:02.462Z,22.90
2019-01-03T11:05:29.785Z,18.07
2019-01-03T11:07:57.070Z,21.90
2019-01-03T11:10:24.329Z,23.63
2019-01-03T11:12:51.611Z,19.13
2019-01-03T11:15:18.865Z,18.10
2019-01-03T11:17:46.157Z,17.07
2019-01-03T11:20:13.409Z,19.10
2019-01-03T11:22:40.694Z,17.40
2019-01-03T11:25:07.974Z,16.30
2019-01-03T11:27:35.229Z,15.10
2019-01-03T11:30:02.583Z,17.60
2019-01-03T11:32:30.109Z,15.40
2019-01-03T11:34:57.365Z,15.37
2019-01-03T11:37:24.649Z,14.90
2019-01-03T11:39:52.146Z,16.70
2019-01-03T11:42:19.421Z,15.37
2019-01-03T11:44:46.674Z,13.83
2019-01-03T11:47:14.234Z,14.00
2019-01-03T11:49:41.483Z,13.27
2019-01-03T11:52:09.021Z,15.10
2019-01-03T11:54:36.306Z,14.47
2019-01-03T11:57:03.562Z,14.60
2019-01-03T11:59:31.093Z,14.10
2019-01-03T12:01:58.348Z,13.17
2019-01-03T12:04:25.911Z,12.70
2019-01-03T12:06:53.161Z,12.30
2019-01-03T12:09:20.415Z,12.90
2019-01-03T12:11:47.702Z,12.70
2019-01-03T12:14:14.953Z,15.80
2019-01-03T12:16:42.236Z,13.00
2019-01-03T12:19:09.759Z,13.97
2019-01-03T12:21:37.311Z,12.97
2019-01-03T12:24:04.848Z,13.93
2019-01-03T12:26:32.132Z,13.07
2019-01-03T12:28:59.639Z,12.50
2019-01-03T12:31:26.932Z,12.73
2019-01-03T12:33:54.189Z,11.93
2019-01-03T12:36:21.466Z,12.10
2019-01-03T12:38:48.718Z,11.93
2019-01-03T12:41:16.251Z,11.83
2019-01-03T12:43:43.532Z,12.10
2019-01-03T12:46:11.185Z,10.97
2019-01-03T12:48:38.466Z,11.70
2019-01-03T12:51:05.718Z,12.37
2019-01-03T12:53:33.006Z,11.70
2019-01-03T12:56:00.256Z,12.60
2019-01-03T12:58:27.779Z,11.93
2019-01-03T13:00:55.071Z,11.57
2019-01-03T13:03:22.331Z,11.30
2019-01-03T13:05:49.826Z,13.37
2019-01-03T13:08:17.111Z,12.03
2019-01-03T13:10:44.618Z,11.43
2019-01-03T13:13:11.889Z,11.27
2019-01-03T13:15:39.399Z,12.17
2019-01-03T13:18:06.754Z,11.77
2019-01-03T13:20:34.511Z,13.00
2019-01-03T13:23:02.208Z,11.53
2019-01-03T13:25:29.510Z,13.10
2019-01-03T13:27:56.850Z,12.53
2019-01-03T13:30:24.210Z,11.87
2019-01-03T13:32:51.453Z,11.40
2019-01-03T13:35:18.742Z,11.63
2019-01-03T13:37:45.994Z,11.80
2019-01-03T13:40:13.243Z,12.53
2019-01-03T13:42:40.533Z,11.00
2019-01-03T13:45:07.846Z,9.90
2019-01-03T13:47:35.142Z,11.87
2019-01-03T13:50:02.599Z,11.73
2019-01-03T13:52:29.890Z,10.37
2019-01-03T13:54:57.143Z,11.77
2019-01-03T13:57:24.714Z,13.03
2019-01-03T13:59:51.998Z,11.07
2019-01-03T14:02:19.248Z,9.80
2019-01-03T14:04:46.529Z,11.17
2019-01-03T14:07:13.783Z,12.33
2019-01-03T14:09:41.065Z,10.87
2019-01-03T14:12:08.329Z,12.00
2019-01-03T14:14:35.583Z,10.50
2019-01-03T14:17:03.122Z,11.50
2019-01-03T14:19:30.663Z,11.57
2019-01-03T14:21:57.939Z,11.30
2019-01-03T14:24:25.283Z,11.40
2019-01-03T14:26:52.545Z,11.50
2019-01-03T14:29:19.919Z,12.20
2019-01-03T14:31:47.174Z,13.63
2019-01-03T14:34:14.425Z,12.10
2019-01-03T14:36:41.709Z,12.20
2019-01-03T14:39:08.955Z,12.00
2019-01-03T14:41:36.233Z,10.60
2019-01-03T14:44:03.509Z,11.17
2019-01-03T14:46:31.041Z,10.83
2019-01-03T14:48:58.555Z,12.43
2019-01-03T14:51:26.694Z,10.87
2019-01-03T14:53:53.947Z,10.67
2019-01-03T14:56:21.231Z,12.17
2019-01-03T14:58:48.482Z,11.63
2019-01-03T15:01:15.764Z,10.57
2019-01-03T15:03:43.009Z,10.67
2019-01-03T15:06:10.294Z,10.80
2019-01-03T15:08:37.582Z,9.30
2019-01-03T15:11:04.825Z,8.90
2019-01-03T15:13:32.098Z,11.43
2019-01-03T15:15:59.593Z,9.20
2019-01-03T15:18:26.866Z,9.10
2019-01-03T15:20:54.369Z,9.80
2019-01-03T15:23:21.645Z,9.50
2019-01-03T15:25:48.894Z,8.90
2019-01-03T15:28:16.170Z,8.37
2019-01-03T15:30:43.414Z,9.30
2019-01-03T15:33:10.661Z,8.93
2019-01-03T15:35:37.939Z,9.40
2019-01-03T15:38:05.190Z,8.20
2019-01-03T15:40:32.474Z,8.90
2019-01-03T15:42:59.717Z,9.93
2019-01-03T15:45:26.993Z,8.27
2019-01-03T15:47:54.242Z,8.03
2019-01-03T15:50:21.526Z,8.30
2019-01-03T15:52:49.018Z,8.13
2019-01-03T15:55:16.302Z,9.00
2019-01-03T15:57:43.577Z,8.07
2019-01-03T16:00:10.822Z,7.63
2019-01-03T16:02:38.093Z,7.13
2019-01-03T16:05:06.047Z,8.47
2019-01-03T16:07:33.562Z,9.57
2019-01-03T16:10:01.149Z,7.60
2019-01-03T16:12:28.419Z,9.20
2019-01-03T16:14:55.698Z,8.90
2019-01-03T16:17:22.942Z,9.23
2019-01-03T16:19:50.217Z,8.83
2019-01-03T16:22:17.492Z,9.90
2019-01-03T16:24:44.769Z,10.13
2019-01-03T16:27:12.049Z,10.63
2019-01-03T16:29:39.543Z,9.77
2019-01-03T16:32:06.841Z,10.00
2019-01-03T16:34:34.085Z,11.00
2019-01-03T16:37:01.442Z,9.03
2019-01-03T16:39:28.970Z,10.43
2019-01-03T16:41:56.250Z,9.47
2019-01-03T16:44:23.754Z,10.10
2019-01-03T16:46:51.024Z,10.03
2019-01-03T16:49:18.303Z,11.20
2019-01-03T16:51:45.550Z,10.60
2019-01-03T16:54:12.833Z,11.10
2019-01-03T16:56:40.090Z,10.43
2019-01-03T16:59:07.406Z,10.67
2019-01-03T17:01:34.969Z,10.57
2019-01-03T17:04:02.208Z,11.37
2019-01-03T17:06:29.493Z,11.00
2019-01-03T17:08:56.750Z,11.40
2019-01-03T17:11:24.033Z,11.60
2019-01-03T17:13:51.290Z,11.70
2019-01-03T17:16:18.737Z,11.93
2019-01-03T17:18:46.028Z,11.80
2019-01-03T17:21:13.306Z,11.30
2019-01-03T17:23:40.561Z,13.13
2019-01-03T17:26:07.852Z,11.23
2019-01-03T17:28:35.121Z,12.03
2019-01-03T17:31:02.702Z,10.87
2019-01-03T17:33:29.989Z,10.20
2019-01-03T17:35:57.249Z,12.23
2019-01-03T17:38:24.528Z,12.30
2019-01-03T17:40:52.249Z,11.97
2019-01-03T17:43:20.066Z,12.90
2019-01-03T17:45:47.727Z,11.10
2019-01-03T17:48:15.000Z,12.20
2019-01-03T17:50:42.503Z,11.90
2019-01-03T17:53:09.791Z,12.10
2019-01-03T17:55:37.307Z,10.83
2019-01-03T17:58:05.024Z,12.30
2019-01-03T18:00:32.275Z,11.40
2019-01-03T18:02:59.553Z,12.33
2019-01-03T18:05:27.070Z,12.13
2019-01-03T18:07:54.570Z,13.73
2019-01-03T18:10:22.123Z,12.40
2019-01-03T18:12:49.384Z,12.83
2019-01-03T18:15:16.662Z,13.67
2019-01-03T18:17:44.193Z,14.67
2019-01-03T18:20:12.833Z,13.00
2019-01-03T18:22:40.173Z,13.30
2019-01-03T18:25:07.518Z,12.60
2019-01-03T18:27:34.846Z,12.60
2019-01-03T18:30:02.127Z,14.50
2019-01-03T18:32:29.377Z,14.57
2019-01-03T18:34:56.635Z,13.43
2019-01-03T18:37:23.909Z,13.90
2019-01-03T18:39:51.460Z,12.23
2019-01-03T18:42:18.990Z,14.50
2019-01-03T18:44:46.508Z,12.47
2019-01-03T18:47:13.786Z,12.03
2019-01-03T18:49:41.046Z,12.20
2019-01-03T18:52:08.326Z,12.80
2019-01-03T18:54:35.588Z,12.50
2019-01-03T18:57:02.873Z,13.47
2019-01-03T18:59:30.124Z,12.60
2019-01-03T19:01:57.406Z,13.43
2019-01-03T19:04:24.721Z,13.97
2019-01-03T19:06:52.017Z,13.07
2019-01-03T19:09:19.265Z,13.17
2019-01-03T19:11:46.517Z,13.20
2019-01-03T19:14:13.797Z,13.47
2019-01-03T19:16:41.821Z,13.30
2019-01-03T19:19:09.358Z,12.30
2019-01-03T19:21:36.720Z,14.80
2019-01-03T19:24:04.230Z,12.80
2019-01-03T19:26:31.534Z,15.90
2019-01-03T19:28:59.051Z,13.60
2019-01-03T19:31:26.300Z,15.57
2019-01-03T19:33:53.586Z,13.37
2019-01-03T19:36:21.110Z,15.57
2019-01-03T19:38:48.654Z,17.70
2019-01-03T19:41:15.918Z,16.00
2019-01-03T19:43:43.194Z,17.77
2019-01-03T19:46:10.470Z,14.17
2019-01-03T19:48:37.983Z,15.33
2019-01-03T19:51:05.267Z,14.30
2019-01-03T19:53:32.514Z,14.43
2019-01-03T19:55:59.802Z,15.20
2019-01-03T19:58:27.059Z,13.33
2019-01-03T20:00:54.334Z,11.93
2019-01-03T20:03:21.587Z,11.10
2019-01-03T20:05:48.871Z,11.60
2019-01-03T20:08:16.118Z,12.10
2019-01-03T20:10:43.654Z,11.27
2019-01-03T20:13:10.930Z,11.87
2019-01-03T20:15:38.190Z,10.93
2019-01-03T20:18:05.718Z,10.90
2019-01-03T20:20:33.276Z,11.70
2019-01-03T20:23:00.874Z,11.47
2019-01-03T20:25:28.398Z,13.77
2019-01-03T20:27:55.685Z,12.80
2019-01-03T20:30:22.941Z,13.67
2019-01-03T20:32:50.201Z,13.97
2019-01-03T20:35:17.477Z,12.10
2019-01-03T20:37:44.992Z,13.40
2019-01-03T20:40:12.274Z,12.30
2019-01-03T20:42:39.590Z,15.73
2019-01-03T20:45:08.447Z,12.80
2019-01-03T20:47:35.702Z,12.50
2019-01-03T20:50:03.847Z,13.13
2019-01-03T20:52:31.130Z,14.03
2019-01-03T20:54:58.414Z,14.90
2019-01-03T20:57:25.926Z,13.67
2019-01-03T20:59:53.178Z,12.10
2019-01-03T21:02:20.455Z,13.80
2019-01-03T21:04:47.711Z,13.37
2019-01-03T21:07:15.361Z,13.73
2019-01-03T21:09:42.697Z,15.20
2019-01-03T21:12:10.200Z,14.27
2019-01-03T21:14:37.568Z,13.70
2019-01-03T21:17:04.842Z,14.07
2019-01-03T21:19:32.098Z,14.00
2019-01-03T21:21:59.369Z,13.00
2019-01-03T21:24:26.652Z,11.90
2019-01-03T21:26:53.966Z,14.33
2019-01-03T21:29:21.500Z,14.10
2019-01-03T21:31:48.751Z,14.50
2019-01-03T21:34:16.044Z,15.20
2019-01-03T21:36:43.291Z,13.07
2019-01-03T21:39:10.569Z,15.50
2019-01-03T21:41:38.110Z,14.00
2019-01-03T21:44:05.358Z,15.90
2019-01-03T21:46:32.637Z,15.90
2019-01-03T21:48:59.913Z,14.90
2019-01-03T21:51:27.165Z,13.13
2019-01-03T21:53:54.445Z,13.67
2019-01-03T21:56:21.815Z,15.57
2019-01-03T21:58:49.098Z,12.80
2019-01-03T22:01:16.341Z,13.00
2019-01-03T22:03:43.867Z,13.20
2019-01-03T22:06:11.122Z,12.00
2019-01-03T22:08:38.401Z,12.07
2019-01-03T22:11:05.649Z,12.43
2019-01-03T22:13:32.937Z,11.17
2019-01-03T22:16:00.226Z,12.07
2019-01-03T22:18:27.505Z,11.00
2019-01-03T22:20:54.834Z,12.80
2019-01-03T22:23:22.185Z,11.10
2019-01-03T22:25:49.768Z,10.97
2019-01-03T22:28:17.162Z,10.30
2019-01-03T22:30:45.116Z,11.63
2019-01-03T22:33:14.123Z,11.60
2019-01-03T22:35:41.557Z,11.80
2019-01-03T22:38:08.809Z,10.53
2019-01-03T22:40:36.787Z,9.50
2019-01-03T22:43:04.110Z,8.83
2019-01-03T22:45:31.613Z,10.23
2019-01-03T22:47:58.890Z,8.10
2019-01-03T22:50:26.142Z,10.43
2019-01-03T22:52:53.422Z,10.10
2019-01-03T22:55:20.699Z,9.53
2019-01-03T22:57:47.982Z,9.87
2019-01-03T23:00:26.948Z,10.50
2019-01-03T23:02:54.186Z,9.10
2019-01-03T23:05:21.551Z,10.40
2019-01-03T23:07:49.046Z,10.20
2019-01-03T23:10:16.565Z,9.73
2019-01-03T23:12:43.837Z,9.60
2019-01-03T23:15:11.377Z,9.47
2019-01-03T23:17:38.654Z,10.57
2019-01-03T23:20:06.483Z,9.07
2019-01-03T23:22:33.754Z,9.70
2019-01-03T23:25:01.006Z,10.17
2019-01-03T23:27:28.275Z,9.60
2019-01-03T23:29:55.570Z,10.70
2019-01-03T23:32:22.886Z,10.50
2019-01-03T23:34:50.134Z,10.47
2019-01-03T23:37:17.423Z,12.00
2019-01-03T23:39:44.955Z,11.10
2019-01-03T23:42:12.481Z,10.90
2019-01-03T23:44:41.279Z,9.30
2019-01-03T23:47:08.566Z,10.10
2019-01-03T23:49:36.065Z,9.70
2019-01-03T23:52:03.363Z,11.10
2019-01-03T23:54:30.612Z,10.73
2019-01-03T23:56:57.866Z,10.13
2019-01-03T23:59:25.166Z,9.90
